Time;durP1;ratioP1;P1;durP2;ratioP2;P2;SDS_P1;SDS_P2;PMS_P1;PMS_P2;Temp;Humidity;BMP_temperature;BMP_pressure;BME280_temperature;BME280_humidity;BME280_pressure;Samples;Min_cycle;Max_cycle;Signal;HPM_P1;HPM_P2
2024/04/26 00:00:50;;;;;;;3.03;2.42;;;;;;;;;;5527616;25;20462;-62
2024/04/26 00:03:17;;;;;;;2.20;1.48;;;;;;;;;;5528864;25;20400;-61
2024/04/26 00:05:43;;;;;;;5.13;1.90;;;;;;;;;;5535248;25;20068;-61
2024/04/26 00:08:08;;;;;;;3.50;1.70;;;;;;;;;;5541666;25;20052;-61
2024/04/26 00:10:34;;;;;;;4.43;1.38;;;;;;;;;;5527708;25;19993;-61
2024/04/26 00:13:00;;;;;;;6.32;1.70;;;;;;;;;;5550712;25;19996;-59
2024/04/26 00:15:26;;;;;;;2.45;1.58;;;;;;;;;;5531663;25;19992;-61
2024/04/26 00:17:52;;;;;;;2.90;1.48;;;;;;;;;;5545317;25;19997;-60
2024/04/26 00:20:18;;;;;;;2.67;1.80;;;;;;;;;;5535714;25;20069;-61
2024/04/26 00:22:44;;;;;;;4.43;2.20;;;;;;;;;;5526439;25;20041;-61
2024/04/26 00:25:10;;;;;;;4.07;1.60;;;;;;;;;;5541051;25;19993;-61
2024/04/26 00:27:37;;;;;;;4.05;1.58;;;;;;;;;;5540780;25;20468;-61
2024/04/26 00:30:04;;;;;;;4.00;1.88;;;;;;;;;;5537885;25;20009;-60
2024/04/26 00:32:30;;;;;;;2.45;1.80;;;;;;;;;;5528473;25;20039;-58
2024/04/26 00:34:55;;;;;;;1.58;1.42;;;;;;;;;;5527383;25;20456;-61
2024/04/26 00:37:21;;;;;;;1.98;1.40;;;;;;;;;;5528002;25;20314;-61
2024/04/26 00:39:47;;;;;;;1.98;1.42;;;;;;;;;;5548888;25;20071;-61
2024/04/26 00:42:13;;;;;;;2.55;1.75;;;;;;;;;;5554133;25;19993;-61
2024/04/26 00:44:39;;;;;;;2.20;1.55;;;;;;;;;;5552464;25;20037;-61
2024/04/26 00:47:05;;;;;;;2.72;1.65;;;;;;;;;;5547814;25;20067;-61
2024/04/26 00:49:32;;;;;;;2.08;1.58;;;;;;;;;;5546518;25;19996;-61
2024/04/26 00:51:58;;;;;;;2.55;1.52;;;;;;;;;;5529817;25;20513;-61
2024/04/26 00:54:25;;;;;;;2.90;1.80;;;;;;;;;;5531312;25;19997;-61
2024/04/26 00:56:54;;;;;;;5.90;2.28;;;;;;;;;;5538951;25;19997;-61
2024/04/26 00:59:20;;;;;;;2.78;1.75;;;;;;;;;;5533831;25;20001;-60
2024/04/26 01:01:46;;;;;;;3.55;2.08;;;;;;;;;;5527812;25;20013;-56
2024/04/26 01:04:12;;;;;;;4.32;1.90;;;;;;;;;;5527992;25;20464;-56
2024/04/26 01:06:38;;;;;;;4.63;2.22;;;;;;;;;;5530703;25;20009;-56
2024/04/26 01:09:04;;;;;;;4.53;2.15;;;;;;;;;;5536493;25;20012;-56
2024/04/26 01:11:30;;;;;;;3.58;2.17;;;;;;;;;;5554912;25;19998;-56
2024/04/26 01:13:56;;;;;;;4.13;2.40;;;;;;;;;;5545338;25;20012;-56
2024/04/26 01:16:22;;;;;;;3.30;2.05;;;;;;;;;;5532643;25;19998;-56
2024/04/26 01:18:48;;;;;;;4.25;2.28;;;;;;;;;;5527118;25;19998;-56
2024/04/26 01:21:15;;;;;;;5.43;2.40;;;;;;;;;;5551455;25;20013;-56
2024/04/26 01:23:41;;;;;;;3.03;1.67;;;;;;;;;;5556071;25;20017;-56
2024/04/26 01:26:07;;;;;;;6.28;2.70;;;;;;;;;;5546849;25;20036;-56
2024/04/26 01:28:34;;;;;;;4.05;2.45;;;;;;;;;;5537051;25;20821;-56
2024/04/26 01:31:00;;;;;;;6.53;1.90;;;;;;;;;;5532053;25;20068;-56
2024/04/26 01:33:26;;;;;;;3.00;2.03;;;;;;;;;;5561285;25;20008;-57
2024/04/26 01:35:52;;;;;;;3.22;2.20;;;;;;;;;;5551598;25;19997;-56
2024/04/26 01:38:18;;;;;;;2.40;1.45;;;;;;;;;;5532837;25;20021;-56
2024/04/26 01:40:44;;;;;;;3.22;2.00;;;;;;;;;;5526333;25;20073;-56
2024/04/26 01:43:10;;;;;;;4.22;2.03;;;;;;;;;;5547369;25;19993;-56
2024/04/26 01:45:37;;;;;;;3.35;2.15;;;;;;;;;;5538020;25;20001;-56
2024/04/26 01:48:03;;;;;;;5.10;2.25;;;;;;;;;;5549709;25;20008;-56
2024/04/26 01:50:29;;;;;;;3.47;2.42;;;;;;;;;;5546454;25;20051;-56
2024/04/26 01:52:55;;;;;;;4.03;2.33;;;;;;;;;;5539748;25;20012;-56
2024/04/26 01:55:21;;;;;;;2.78;2.22;;;;;;;;;;5540119;25;20027;-57
2024/04/26 01:57:47;;;;;;;3.22;2.15;;;;;;;;;;5531995;25;19993;-56
2024/04/26 02:00:13;;;;;;;4.75;2.85;;;;;;;;;;5536914;25;20343;-56
2024/04/26 02:02:39;;;;;;;4.03;2.20;;;;;;;;;;5541260;25;20008;-56
2024/04/26 02:05:05;;;;;;;2.72;2.25;;;;;;;;;;5533345;25;20031;-57
2024/04/26 02:07:31;;;;;;;3.58;2.20;;;;;;;;;;5542596;25;19997;-56
2024/04/26 02:09:58;;;;;;;3.20;1.80;;;;;;;;;;5535660;25;20008;-54
2024/04/26 02:12:25;;;;;;;3.75;2.33;;;;;;;;;;5525068;25;20081;-53
2024/04/26 02:14:51;;;;;;;3.38;2.33;;;;;;;;;;5536641;25;20329;-53
2024/04/26 02:17:17;;;;;;;3.88;2.50;;;;;;;;;;5548093;25;20010;-54
2024/04/26 02:19:43;;;;;;;4.90;2.67;;;;;;;;;;5540646;25;20100;-52
2024/04/26 02:22:09;;;;;;;4.38;2.60;;;;;;;;;;5538047;25;20008;-52
2024/04/26 02:24:35;;;;;;;3.30;2.20;;;;;;;;;;5548503;25;20021;-51
2024/04/26 02:27:01;;;;;;;3.85;2.58;;;;;;;;;;5530388;25;20021;-52
2024/04/26 02:29:27;;;;;;;3.05;2.13;;;;;;;;;;5538378;25;20009;-51
2024/04/26 02:31:53;;;;;;;4.35;1.92;;;;;;;;;;5537260;25;20038;-52
2024/04/26 02:34:19;;;;;;;5.68;2.60;;;;;;;;;;5542396;25;19992;-54
2024/04/26 02:36:45;;;;;;;3.13;2.15;;;;;;;;;;5539338;25;19994;-54
2024/04/26 02:39:11;;;;;;;3.92;2.65;;;;;;;;;;5531559;25;19997;-52
2024/04/26 02:41:37;;;;;;;3.47;2.55;;;;;;;;;;5526110;25;20017;-53
2024/04/26 02:44:04;;;;;;;3.45;2.42;;;;;;;;;;5525246;25;20001;-54
2024/04/26 02:46:34;;;;;;;2.85;2.35;;;;;;;;;;5524191;25;20027;-53
2024/04/26 02:49:00;;;;;;;2.65;2.17;;;;;;;;;;5538616;25;20040;-53
2024/04/26 02:51:26;;;;;;;5.22;2.70;;;;;;;;;;5530995;25;20073;-52
2024/04/26 02:53:52;;;;;;;4.25;2.45;;;;;;;;;;5538852;25;19993;-53
2024/04/26 02:56:18;;;;;;;4.28;2.60;;;;;;;;;;5525461;25;20013;-54
2024/04/26 02:58:44;;;;;;;5.45;2.60;;;;;;;;;;5532285;25;20014;-52
2024/04/26 03:01:10;;;;;;;6.53;2.65;;;;;;;;;;5548837;25;19993;-53
2024/04/26 03:03:37;;;;;;;4.00;2.22;;;;;;;;;;5525121;25;20020;-55
2024/04/26 03:06:09;;;;;;;3.72;2.63;;;;;;;;;;5545577;25;20002;-52
2024/04/26 03:08:36;;;;;;;5.00;2.70;;;;;;;;;;5542730;25;20002;-54
2024/04/26 03:11:02;;;;;;;4.13;2.90;;;;;;;;;;5524727;25;20009;-55
2024/04/26 03:13:28;;;;;;;5.20;2.47;;;;;;;;;;5524917;25;20046;-54
2024/04/26 03:15:54;;;;;;;6.65;2.92;;;;;;;;;;5525036;25;20020;-53
2024/04/26 03:18:22;;;;;;;5.38;3.10;;;;;;;;;;5547062;25;20013;-61
2024/04/26 03:20:51;;;;;;;3.90;2.67;;;;;;;;;;5572384;25;20331;-53
2024/04/26 03:23:18;;;;;;;8.38;3.15;;;;;;;;;;5552576;25;20111;-53
2024/04/26 03:25:44;;;;;;;4.82;2.50;;;;;;;;;;5534328;25;20005;-50
2024/04/26 03:28:10;;;;;;;3.63;2.60;;;;;;;;;;5533110;25;20011;-55
2024/04/26 03:30:36;;;;;;;6.45;3.05;;;;;;;;;;5529606;25;19997;-55
2024/04/26 03:33:02;;;;;;;4.60;2.88;;;;;;;;;;5558255;25;20042;-51
2024/04/26 03:35:28;;;;;;;5.78;2.60;;;;;;;;;;5548875;25;20012;-52
2024/04/26 03:37:54;;;;;;;5.65;3.15;;;;;;;;;;5542939;25;20024;-53
2024/04/26 03:40:20;;;;;;;5.93;3.08;;;;;;;;;;5537256;25;20012;-52
2024/04/26 03:42:46;;;;;;;5.55;3.08;;;;;;;;;;5554955;25;20425;-53
2024/04/26 03:45:13;;;;;;;6.35;2.85;;;;;;;;;;5527940;25;20008;-55
2024/04/26 03:47:39;;;;;;;7.20;3.35;;;;;;;;;;5525783;25;19993;-53
2024/04/26 03:50:05;;;;;;;4.85;3.40;;;;;;;;;;5544718;25;20313;-53
2024/04/26 03:52:31;;;;;;;5.13;3.17;;;;;;;;;;5527181;25;20006;-56
2024/04/26 03:54:57;;;;;;;5.90;3.50;;;;;;;;;;5548701;25;20376;-54
2024/04/26 03:57:23;;;;;;;7.95;3.03;;;;;;;;;;5545160;25;20001;-53
2024/04/26 03:59:49;;;;;;;7.15;3.10;;;;;;;;;;5536925;25;20008;-54
2024/04/26 04:02:15;;;;;;;5.13;3.03;;;;;;;;;;5524070;25;20342;-54
2024/04/26 04:04:41;;;;;;;4.32;3.10;;;;;;;;;;5540799;25;20290;-52
2024/04/26 04:07:06;;;;;;;6.15;3.53;;;;;;;;;;5542683;25;19997;-54
2024/04/26 04:09:32;;;;;;;6.50;3.08;;;;;;;;;;5528969;25;19993;-54
2024/04/26 04:11:58;;;;;;;8.15;3.25;;;;;;;;;;5560586;25;20408;-53
2024/04/26 04:14:24;;;;;;;7.88;3.63;;;;;;;;;;5537350;25;20009;-53
2024/04/26 04:16:50;;;;;;;7.88;3.13;;;;;;;;;;5544419;25;20025;-52
2024/04/26 04:19:16;;;;;;;6.35;3.03;;;;;;;;;;5555808;25;20017;-53
2024/04/26 04:21:42;;;;;;;5.18;3.47;;;;;;;;;;5540213;25;19992;-55
2024/04/26 04:24:08;;;;;;;6.03;3.30;;;;;;;;;;5535433;25;20329;-55
2024/04/26 04:26:34;;;;;;;6.40;3.60;;;;;;;;;;5549062;25;20064;-57
2024/04/26 04:29:00;;;;;;;8.18;3.38;;;;;;;;;;5541847;25;19997;-56
2024/04/26 04:31:27;;;;;;;7.75;2.97;;;;;;;;;;5542183;25;20466;-56
2024/04/26 04:33:53;;;;;;;6.55;3.35;;;;;;;;;;5530832;25;20155;-56
2024/04/26 04:36:19;;;;;;;5.95;3.58;;;;;;;;;;5533303;25;20041;-56
2024/04/26 04:38:45;;;;;;;5.22;3.20;;;;;;;;;;5547782;25;20068;-56
2024/04/26 04:41:11;;;;;;;7.82;4.03;;;;;;;;;;5555560;25;20005;-56
2024/04/26 04:43:37;;;;;;;5.88;3.58;;;;;;;;;;5539336;25;20010;-56
2024/04/26 04:46:05;;;;;;;6.13;3.60;;;;;;;;;;5552076;25;20378;-56
2024/04/26 04:48:31;;;;;;;4.88;3.42;;;;;;;;;;5531673;25;19994;-56
2024/04/26 04:50:57;;;;;;;10.88;4.03;;;;;;;;;;5551147;25;20895;-56
2024/04/26 04:53:22;;;;;;;5.65;2.92;;;;;;;;;;5547250;25;20009;-56
2024/04/26 04:55:48;;;;;;;7.22;3.67;;;;;;;;;;5544922;25;19988;-56
2024/04/26 04:58:15;;;;;;;5.78;3.53;;;;;;;;;;5546695;25;19996;-55
2024/04/26 05:00:41;;;;;;;9.48;3.60;;;;;;;;;;5542259;25;20005;-56
2024/04/26 05:03:07;;;;;;;9.30;3.67;;;;;;;;;;5555849;25;20041;-58
2024/04/26 05:05:33;;;;;;;4.90;3.42;;;;;;;;;;5536807;25;20452;-57
2024/04/26 05:07:59;;;;;;;4.97;3.28;;;;;;;;;;5551720;25;20001;-54
2024/04/26 05:10:24;;;;;;;6.90;3.47;;;;;;;;;;5543754;25;20004;-57
2024/04/26 05:12:50;;;;;;;5.30;3.10;;;;;;;;;;5531837;25;19997;-56
2024/04/26 05:15:16;;;;;;;5.38;3.40;;;;;;;;;;5554923;25;20001;-56
2024/04/26 05:17:47;;;;;;;5.32;3.40;;;;;;;;;;5554303;25;20005;-56
2024/04/26 05:20:13;;;;;;;6.70;3.53;;;;;;;;;;5543127;25;20037;-56
2024/04/26 05:22:39;;;;;;;6.18;3.38;;;;;;;;;;5554601;25;20001;-55
2024/04/26 05:25:05;;;;;;;5.80;3.50;;;;;;;;;;5558342;25;20001;-56
2024/04/26 05:27:31;;;;;;;5.82;3.50;;;;;;;;;;5547668;25;19993;-56
2024/04/26 05:29:57;;;;;;;7.45;3.80;;;;;;;;;;5541430;25;19997;-56
2024/04/26 05:32:23;;;;;;;5.78;3.30;;;;;;;;;;5544276;25;20003;-56
2024/04/26 05:34:49;;;;;;;7.15;3.80;;;;;;;;;;5526603;25;20078;-56
2024/04/26 05:37:15;;;;;;;8.88;3.70;;;;;;;;;;5536824;25;20065;-57
2024/04/26 05:39:41;;;;;;;6.18;3.95;;;;;;;;;;5553372;25;20000;-56
2024/04/26 05:42:07;;;;;;;6.95;4.13;;;;;;;;;;5560491;25;20353;-57
2024/04/26 05:44:33;;;;;;;5.50;3.20;;;;;;;;;;5534727;25;20128;-56
2024/04/26 05:46:59;;;;;;;6.40;3.30;;;;;;;;;;5536324;25;20025;-52
2024/04/26 05:49:25;;;;;;;8.77;3.55;;;;;;;;;;5537006;25;20002;-54
2024/04/26 05:51:51;;;;;;;6.82;3.38;;;;;;;;;;5562210;25;20049;-55
2024/04/26 05:54:17;;;;;;;6.38;3.67;;;;;;;;;;5560352;25;19996;-54
2024/04/26 05:56:43;;;;;;;5.60;3.00;;;;;;;;;;5558579;25;20004;-53
2024/04/26 05:59:09;;;;;;;4.85;3.33;;;;;;;;;;5560129;25;20007;-54
2024/04/26 06:01:34;;;;;;;6.70;3.53;;;;;;;;;;5547807;25;20318;-54
2024/04/26 06:04:01;;;;;;;7.93;3.58;;;;;;;;;;5553157;25;20345;-52
2024/04/26 06:06:27;;;;;;;7.95;3.58;;;;;;;;;;5538538;25;19993;-55
2024/04/26 06:08:53;;;;;;;5.75;3.78;;;;;;;;;;5536054;25;20005;-54
2024/04/26 06:11:19;;;;;;;4.95;3.53;;;;;;;;;;5552901;25;19997;-54
2024/04/26 06:13:45;;;;;;;4.18;3.15;;;;;;;;;;5550390;25;20008;-53
2024/04/26 06:16:11;;;;;;;4.95;3.33;;;;;;;;;;5562005;25;20025;-51
2024/04/26 06:18:38;;;;;;;5.07;2.95;;;;;;;;;;5555894;25;20012;-54
2024/04/26 06:21:04;;;;;;;7.32;3.03;;;;;;;;;;5552152;25;20371;-54
2024/04/26 06:23:30;;;;;;;7.18;3.00;;;;;;;;;;5546054;25;20002;-55
2024/04/26 06:25:56;;;;;;;7.28;2.95;;;;;;;;;;5538546;25;20065;-54
2024/04/26 06:28:22;;;;;;;6.10;3.00;;;;;;;;;;5548887;25;20001;-58
2024/04/26 06:30:48;;;;;;;8.32;3.58;;;;;;;;;;5556588;25;20444;-54
2024/04/26 06:33:14;;;;;;;5.10;2.90;;;;;;;;;;5550500;25;20007;-55
2024/04/26 06:35:43;;;;;;;4.68;2.88;;;;;;;;;;5551119;25;20007;-55
2024/04/26 06:38:10;;;;;;;6.47;3.03;;;;;;;;;;5543280;25;20025;-55
2024/04/26 06:40:38;;;;;;;5.88;3.03;;;;;;;;;;5554043;25;20001;-53
2024/04/26 06:43:04;;;;;;;6.85;2.92;;;;;;;;;;5560986;25;20007;-52
2024/04/26 06:45:30;;;;;;;5.50;2.58;;;;;;;;;;5558933;25;19997;-56
2024/04/26 06:47:56;;;;;;;3.78;2.55;;;;;;;;;;5561146;25;20064;-54
2024/04/26 06:50:22;;;;;;;3.03;1.98;;;;;;;;;;5543906;25;19993;-59
2024/04/26 06:52:48;;;;;;;5.32;2.10;;;;;;;;;;5560592;25;20033;-58
2024/04/26 06:55:14;;;;;;;5.70;2.60;;;;;;;;;;5554767;25;19997;-58
2024/04/26 06:57:40;;;;;;;4.40;2.60;;;;;;;;;;5560810;25;20011;-57
2024/04/26 07:00:06;;;;;;;5.97;2.85;;;;;;;;;;5554784;25;20000;-56
2024/04/26 07:02:32;;;;;;;5.07;2.58;;;;;;;;;;5551938;25;20003;-58
2024/04/26 07:04:58;;;;;;;3.17;2.05;;;;;;;;;;5541204;25;20430;-57
2024/04/26 07:07:24;;;;;;;9.23;2.40;;;;;;;;;;5530431;25;20382;-57
2024/04/26 07:09:50;;;;;;;5.00;2.17;;;;;;;;;;5560961;25;20337;-57
2024/04/26 07:12:16;;;;;;;4.53;2.25;;;;;;;;;;5549165;25;20060;-58
2024/04/26 07:14:42;;;;;;;4.68;2.90;;;;;;;;;;5544587;25;20001;-58
2024/04/26 07:17:08;;;;;;;4.97;2.13;;;;;;;;;;5552332;25;20040;-57
2024/04/26 07:19:40;;;;;;;3.50;2.13;;;;;;;;;;5556262;25;20016;-57
2024/04/26 07:22:06;;;;;;;3.85;2.13;;;;;;;;;;5556229;25;19997;-58
2024/04/26 07:24:32;;;;;;;2.90;1.90;;;;;;;;;;5558885;25;20390;-57
2024/04/26 07:26:58;;;;;;;3.63;2.10;;;;;;;;;;5560406;25;19997;-57
2024/04/26 07:29:25;;;;;;;3.53;2.05;;;;;;;;;;5542385;25;20032;-58
2024/04/26 07:31:51;;;;;;;5.30;2.35;;;;;;;;;;5552290;25;20004;-59
2024/04/26 07:34:17;;;;;;;3.45;2.00;;;;;;;;;;5559329;25;20011;-57
2024/04/26 07:36:43;;;;;;;3.85;1.80;;;;;;;;;;5552816;25;20012;-58
2024/04/26 07:39:09;;;;;;;5.55;1.70;;;;;;;;;;5549417;25;20031;-57
2024/04/26 07:41:35;;;;;;;4.57;1.83;;;;;;;;;;5535927;25;19993;-57
2024/04/26 07:44:01;;;;;;;3.97;2.13;;;;;;;;;;5559714;25;19992;-58
2024/04/26 07:46:27;;;;;;;3.47;2.03;;;;;;;;;;5553740;25;20019;-58
2024/04/26 07:48:53;;;;;;;4.10;2.20;;;;;;;;;;5536499;25;19993;-58
2024/04/26 07:51:19;;;;;;;4.95;2.15;;;;;;;;;;5553463;25;20032;-57
2024/04/26 07:53:45;;;;;;;7.88;2.10;;;;;;;;;;5559602;25;20011;-58
2024/04/26 07:56:12;;;;;;;4.78;1.75;;;;;;;;;;5559882;25;20448;-58
2024/04/26 07:58:37;;;;;;;6.75;2.20;;;;;;;;;;5545578;25;20016;-57
2024/04/26 08:01:04;;;;;;;4.95;2.08;;;;;;;;;;5539108;25;20044;-58
2024/04/26 08:03:30;;;;;;;8.80;1.90;;;;;;;;;;5559122;25;20016;-58
2024/04/26 08:05:56;;;;;;;4.57;1.65;;;;;;;;;;5537809;25;20001;-57
2024/04/26 08:08:22;;;;;;;3.15;1.40;;;;;;;;;;5557584;25;19992;-58
2024/04/26 08:10:48;;;;;;;3.08;1.58;;;;;;;;;;5559804;25;19997;-58
2024/04/26 08:13:14;;;;;;;3.33;1.85;;;;;;;;;;5554991;25;20433;-58
2024/04/26 08:15:41;;;;;;;6.05;1.55;;;;;;;;;;5558251;25;20317;-58
2024/04/26 08:18:07;;;;;;;5.05;2.00;;;;;;;;;;5551664;25;20320;-59
2024/04/26 08:20:33;;;;;;;4.13;1.70;;;;;;;;;;5551618;25;19993;-59
2024/04/26 08:22:59;;;;;;;5.90;2.03;;;;;;;;;;5541640;25;20009;-58
2024/04/26 08:25:27;;;;;;;2.83;1.75;;;;;;;;;;5557804;25;20036;-58
2024/04/26 08:27:53;;;;;;;7.07;2.35;;;;;;;;;;5543243;25;19998;-58
2024/04/26 08:30:19;;;;;;;3.92;2.15;;;;;;;;;;5555449;25;20301;-58
2024/04/26 08:32:45;;;;;;;7.00;2.30;;;;;;;;;;5559162;25;20006;-58
2024/04/26 08:35:12;;;;;;;5.88;2.13;;;;;;;;;;5556823;25;20313;-58
2024/04/26 08:37:40;;;;;;;7.78;2.17;;;;;;;;;;5562982;25;20471;-58
2024/04/26 08:40:06;;;;;;;4.32;1.98;;;;;;;;;;5560644;25;20460;-58
2024/04/26 08:42:32;;;;;;;5.63;2.30;;;;;;;;;;5562666;25;19996;-58
2024/04/26 08:44:58;;;;;;;5.88;1.90;;;;;;;;;;5562960;25;20444;-57
2024/04/26 08:47:25;;;;;;;5.93;1.80;;;;;;;;;;5561281;25;20000;-58
2024/04/26 08:49:52;;;;;;;6.50;2.03;;;;;;;;;;5563037;25;20018;-58
2024/04/26 08:52:18;;;;;;;4.32;1.70;;;;;;;;;;5546795;25;20057;-58
2024/04/26 08:54:44;;;;;;;3.33;2.08;;;;;;;;;;5560516;25;20037;-58
2024/04/26 08:57:11;;;;;;;5.60;2.05;;;;;;;;;;5555130;25;19997;-58
2024/04/26 08:59:40;;;;;;;2.88;1.63;;;;;;;;;;5562439;25;20000;-58
2024/04/26 09:02:07;;;;;;;5.80;1.95;;;;;;;;;;5561025;25;20068;-59
2024/04/26 09:04:33;;;;;;;3.53;2.13;;;;;;;;;;5552244;25;20073;-57
2024/04/26 09:06:59;;;;;;;4.03;1.60;;;;;;;;;;5556770;25;20013;-58
2024/04/26 09:09:25;;;;;;;3.97;1.75;;;;;;;;;;5555097;25;20071;-61
2024/04/26 09:11:50;;;;;;;3.50;1.55;;;;;;;;;;5546419;25;20408;-61
2024/04/26 09:14:17;;;;;;;2.97;1.55;;;;;;;;;;5560597;25;20004;-60
2024/04/26 09:16:46;;;;;;;2.63;1.48;;;;;;;;;;5560294;25;20038;-60
2024/04/26 09:19:12;;;;;;;3.83;1.40;;;;;;;;;;5557285;25;19988;-61
2024/04/26 09:21:38;;;;;;;2.40;1.30;;;;;;;;;;5562589;25;20011;-60
2024/04/26 09:24:04;;;;;;;7.18;1.77;;;;;;;;;;5553069;25;20040;-60
2024/04/26 09:26:30;;;;;;;7.75;1.80;;;;;;;;;;5560267;25;20460;-61
2024/04/26 09:28:56;;;;;;;3.55;1.33;;;;;;;;;;5550941;25;20007;-61
2024/04/26 09:31:22;;;;;;;5.55;1.55;;;;;;;;;;5560616;25;20766;-60
2024/04/26 09:33:53;;;;;;;7.22;1.50;;;;;;;;;;5559633;25;19996;-59
2024/04/26 09:36:22;;;;;;;3.03;1.00;;;;;;;;;;5540047;25;19997;-61
2024/04/26 09:38:48;;;;;;;5.55;1.20;;;;;;;;;;5561735;25;20001;-61
2024/04/26 09:41:16;;;;;;;4.75;1.58;;;;;;;;;;5562182;25;20000;-61
2024/04/26 09:43:43;;;;;;;2.25;1.33;;;;;;;;;;5536782;25;20001;-60
2024/04/26 09:46:09;;;;;;;7.28;1.33;;;;;;;;;;5559627;25;20041;-61
2024/04/26 09:48:37;;;;;;;3.17;1.48;;;;;;;;;;5556548;25;19997;-61
2024/04/26 09:51:04;;;;;;;6.85;1.27;;;;;;;;;;5549779;25;20004;-61
2024/04/26 09:53:32;;;;;;;2.42;1.27;;;;;;;;;;5557171;25;20524;-61
2024/04/26 09:55:59;;;;;;;2.67;1.27;;;;;;;;;;5546794;25;20009;-61
2024/04/26 09:58:25;;;;;;;3.67;1.40;;;;;;;;;;5561578;25;20184;-61
2024/04/26 10:00:51;;;;;;;4.35;1.13;;;;;;;;;;5547604;25;19997;-61
2024/04/26 10:03:18;;;;;;;4.68;1.10;;;;;;;;;;5561256;25;20408;-61
2024/04/26 10:05:44;;;;;;;1.55;0.95;;;;;;;;;;5542214;25;20416;-61
2024/04/26 10:08:11;;;;;;;6.55;1.38;;;;;;;;;;5561969;25;20001;-61
2024/04/26 10:10:37;;;;;;;3.65;1.25;;;;;;;;;;5561668;25;20398;-61
2024/04/26 10:13:04;;;;;;;1.70;0.60;;;;;;;;;;5544608;25;19997;-60
2024/04/26 10:15:30;;;;;;;2.60;1.27;;;;;;;;;;5559520;25;19993;-61
2024/04/26 10:17:56;;;;;;;5.03;1.83;;;;;;;;;;5561949;25;20000;-61
2024/04/26 10:20:22;;;;;;;4.03;1.35;;;;;;;;;;5555517;25;20436;-57
2024/04/26 10:22:59;;;;;;;4.00;1.42;;;;;;;;;;5549373;25;20047;-57
2024/04/26 10:25:25;;;;;;;3.03;1.20;;;;;;;;;;5550299;25;20079;-56
2024/04/26 10:27:51;;;;;;;2.63;1.27;;;;;;;;;;5540640;25;19996;-56
2024/04/26 10:30:17;;;;;;;3.10;1.10;;;;;;;;;;5556864;25;20336;-56
2024/04/26 10:32:43;;;;;;;3.25;1.30;;;;;;;;;;5551164;25;19996;-58
2024/04/26 10:35:19;;;;;;;2.63;0.80;;;;;;;;;;5550004;25;20008;-58
2024/04/26 10:37:55;;;;;;;3.50;1.00;;;;;;;;;;5546361;25;20034;-55
2024/04/26 10:40:21;;;;;;;6.63;1.10;;;;;;;;;;5552347;25;19997;-56
2024/04/26 10:42:47;;;;;;;4.35;1.60;;;;;;;;;;5560768;25;20023;-55
2024/04/26 10:45:13;;;;;;;3.58;1.10;;;;;;;;;;5549480;25;20008;-54
2024/04/26 10:47:39;;;;;;;1.77;1.05;;;;;;;;;;5548748;25;20008;-56
2024/04/26 10:50:05;;;;;;;5.93;1.23;;;;;;;;;;5542058;25;20012;-56
2024/04/26 10:52:31;;;;;;;2.15;1.25;;;;;;;;;;5541004;25;20337;-57
2024/04/26 10:54:57;;;;;;;4.43;1.08;;;;;;;;;;5547159;25;20001;-54
2024/04/26 10:57:23;;;;;;;2.40;0.90;;;;;;;;;;5553302;25;20001;-57
2024/04/26 10:59:59;;;;;;;6.32;1.08;;;;;;;;;;5543575;25;20410;-56
2024/04/26 11:02:25;;;;;;;5.78;1.90;;;;;;;;;;5560454;25;20005;-56
2024/04/26 11:05:04;;;;;;;4.25;1.30;;;;;;;;;;5549911;25;20008;-56
2024/04/26 11:07:31;;;;;;;8.07;1.10;;;;;;;;;;5539143;25;19996;-56
2024/04/26 11:09:57;;;;;;;3.80;1.20;;;;;;;;;;5539638;25;20016;-56
2024/04/26 11:12:23;;;;;;;6.68;1.48;;;;;;;;;;5538294;25;20049;-58
2024/04/26 11:14:49;;;;;;;4.13;1.00;;;;;;;;;;5548724;25;20010;-56
2024/04/26 11:17:15;;;;;;;3.17;1.33;;;;;;;;;;5536561;25;20617;-56
2024/04/26 11:19:43;;;;;;;2.92;1.10;;;;;;;;;;5541777;25;20322;-56
2024/04/26 11:22:09;;;;;;;2.83;1.15;;;;;;;;;;5534437;25;19997;-56
2024/04/26 11:24:35;;;;;;;3.10;1.17;;;;;;;;;;5558095;25;19997;-57
2024/04/26 11:27:11;;;;;;;7.88;1.10;;;;;;;;;;5556844;25;20468;-56
2024/04/26 11:29:37;;;;;;;3.42;1.30;;;;;;;;;;5543950;25;20455;-61
2024/04/26 11:32:03;;;;;;;3.58;1.08;;;;;;;;;;5542545;25;20028;-61
2024/04/26 11:34:29;;;;;;;3.17;1.30;;;;;;;;;;5552189;25;20342;-61
2024/04/26 11:36:56;;;;;;;3.63;0.90;;;;;;;;;;5536206;25;20064;-60
2024/04/26 11:39:22;;;;;;;3.58;1.45;;;;;;;;;;5545839;25;20019;-61
2024/04/26 11:41:48;;;;;;;2.90;1.00;;;;;;;;;;5553707;25;20472;-61
2024/04/26 11:44:14;;;;;;;7.10;1.20;;;;;;;;;;5559391;25;20036;-61
2024/04/26 11:46:40;;;;;;;5.40;0.95;;;;;;;;;;5526824;25;20496;-61
2024/04/26 11:49:06;;;;;;;1.92;0.73;;;;;;;;;;5540450;25;20309;-61
2024/04/26 11:51:37;;;;;;;2.95;1.13;;;;;;;;;;5560571;25;20004;-62
2024/04/26 11:54:03;;;;;;;4.40;0.93;;;;;;;;;;5552512;25;20002;-62
2024/04/26 11:56:29;;;;;;;2.55;1.00;;;;;;;;;;5546080;25;19996;-62
2024/04/26 11:58:56;;;;;;;2.97;0.88;;;;;;;;;;5546898;25;20603;-60
2024/04/26 12:01:22;;;;;;;6.15;1.38;;;;;;;;;;5554242;25;20004;-60
2024/04/26 12:03:48;;;;;;;3.60;1.30;;;;;;;;;;5550446;25;20092;-60
2024/04/26 12:06:14;;;;;;;2.58;0.82;;;;;;;;;;5548136;25;20045;-61
2024/04/26 12:08:42;;;;;;;3.75;0.65;;;;;;;;;;5557986;25;20012;-60
2024/04/26 12:11:10;;;;;;;3.33;1.00;;;;;;;;;;5544298;25;20001;-60
2024/04/26 12:13:36;;;;;;;1.63;0.70;;;;;;;;;;5550414;25;20000;-60
2024/04/26 12:16:02;;;;;;;2.70;0.77;;;;;;;;;;5553393;25;20024;-60
2024/04/26 12:18:28;;;;;;;2.50;0.63;;;;;;;;;;5548184;25;20012;-60
2024/04/26 12:20:53;;;;;;;3.63;1.00;;;;;;;;;;5537678;25;20446;-61
2024/04/26 12:23:19;;;;;;;2.25;1.10;;;;;;;;;;5536504;25;20390;-61
2024/04/26 12:25:45;;;;;;;1.63;0.77;;;;;;;;;;5550222;25;20067;-61
2024/04/26 12:28:11;;;;;;;3.90;0.70;;;;;;;;;;5536156;25;19992;-61
2024/04/26 12:30:41;;;;;;;3.13;0.80;;;;;;;;;;5550473;25;20076;-61
2024/04/26 12:33:07;;;;;;;2.92;1.00;;;;;;;;;;5553243;25;20403;-61
2024/04/26 12:35:39;;;;;;;2.88;1.00;;;;;;;;;;5545768;25;20004;-60
2024/04/26 12:38:05;;;;;;;2.85;1.00;;;;;;;;;;5536688;25;20005;-61
2024/04/26 12:40:31;;;;;;;2.15;0.73;;;;;;;;;;5552483;25;19993;-57
2024/04/26 12:42:58;;;;;;;2.13;0.68;;;;;;;;;;5550482;25;20004;-58
2024/04/26 12:45:24;;;;;;;1.92;0.63;;;;;;;;;;5536339;25;20001;-56
2024/04/26 12:47:50;;;;;;;2.00;0.80;;;;;;;;;;5552023;25;20013;-58
2024/04/26 12:50:16;;;;;;;1.30;0.57;;;;;;;;;;5553183;25;20072;-56
2024/04/26 12:52:43;;;;;;;2.05;0.60;;;;;;;;;;5545443;25;20006;-56
2024/04/26 12:55:09;;;;;;;3.00;1.02;;;;;;;;;;5553997;25;20001;-56
2024/04/26 12:57:35;;;;;;;6.93;1.05;;;;;;;;;;5562783;25;20068;-57
2024/04/26 13:00:02;;;;;;;1.55;0.85;;;;;;;;;;5558336;25;20002;-56
2024/04/26 13:02:28;;;;;;;2.40;0.88;;;;;;;;;;5552055;25;20043;-56
2024/04/26 13:04:53;;;;;;;2.55;0.77;;;;;;;;;;5534983;25;20068;-56
2024/04/26 13:07:20;;;;;;;2.03;0.93;;;;;;;;;;5538950;25;20394;-57
2024/04/26 13:09:46;;;;;;;4.13;1.15;;;;;;;;;;5554154;25;20028;-57
2024/04/26 13:12:12;;;;;;;1.40;0.70;;;;;;;;;;5558025;25;20025;-58
2024/04/26 13:14:38;;;;;;;2.60;0.73;;;;;;;;;;5552702;25;20432;-58
2024/04/26 13:17:04;;;;;;;3.47;1.08;;;;;;;;;;5532648;25;20002;-56
2024/04/26 13:19:30;;;;;;;2.65;0.60;;;;;;;;;;5576271;25;20337;-57
2024/04/26 13:21:56;;;;;;;4.25;0.60;;;;;;;;;;5547581;25;19997;-57
2024/04/26 13:24:22;;;;;;;4.65;0.80;;;;;;;;;;5542135;25;20498;-57
2024/04/26 13:26:49;;;;;;;1.40;0.57;;;;;;;;;;5536325;25;19999;-58
2024/04/26 13:29:18;;;;;;;3.65;0.50;;;;;;;;;;5543239;25;20023;-57
2024/04/26 13:31:44;;;;;;;2.30;0.80;;;;;;;;;;5552998;25;20328;-58
2024/04/26 13:34:18;;;;;;;1.58;0.40;;;;;;;;;;5541903;25;20004;-57
2024/04/26 13:36:44;;;;;;;2.42;0.68;;;;;;;;;;5549325;25;20008;-57
2024/04/26 13:39:13;;;;;;;2.55;0.60;;;;;;;;;;5522580;25;20442;-58
2024/04/26 13:41:39;;;;;;;3.20;0.50;;;;;;;;;;5541710;25;19997;-57
2024/04/26 13:44:05;;;;;;;1.58;0.55;;;;;;;;;;5537617;25;20023;-57
2024/04/26 13:46:31;;;;;;;1.85;0.52;;;;;;;;;;5533252;25;20488;-57
2024/04/26 13:48:57;;;;;;;2.33;0.70;;;;;;;;;;5550153;25;20426;-58
2024/04/26 13:51:23;;;;;;;2.00;0.55;;;;;;;;;;5547558;25;20122;-57
2024/04/26 13:53:49;;;;;;;3.05;0.65;;;;;;;;;;5547365;25;20000;-57
2024/04/26 13:56:15;;;;;;;2.50;0.65;;;;;;;;;;5542423;25;20016;-58
2024/04/26 13:58:41;;;;;;;5.00;0.90;;;;;;;;;;5540994;25;19997;-58
2024/04/26 14:01:08;;;;;;;2.45;0.63;;;;;;;;;;5552841;25;20088;-58
2024/04/26 14:03:34;;;;;;;3.50;0.82;;;;;;;;;;5550196;25;20025;-58
2024/04/26 14:06:00;;;;;;;2.20;0.75;;;;;;;;;;5532984;25;20008;-58
2024/04/26 14:08:26;;;;;;;3.60;0.77;;;;;;;;;;5525986;25;20003;-57
2024/04/26 14:10:54;;;;;;;2.25;0.65;;;;;;;;;;5552010;25;20312;-57
2024/04/26 14:13:20;;;;;;;2.83;0.95;;;;;;;;;;5532723;25;20023;-56
2024/04/26 14:15:46;;;;;;;2.55;0.80;;;;;;;;;;5548078;25;19992;-56
2024/04/26 14:18:12;;;;;;;2.45;0.73;;;;;;;;;;5545519;25;20444;-57
2024/04/26 14:20:38;;;;;;;4.75;0.98;;;;;;;;;;5561467;25;19993;-57
2024/04/26 14:23:05;;;;;;;2.30;0.55;;;;;;;;;;5542414;25;20033;-57
2024/04/26 14:25:33;;;;;;;2.65;0.90;;;;;;;;;;5555715;25;19993;-59
2024/04/26 14:27:59;;;;;;;2.83;0.90;;;;;;;;;;5553928;25;20012;-57
2024/04/26 14:30:25;;;;;;;7.40;2.38;;;;;;;;;;5551778;25;20119;-57
2024/04/26 14:32:51;;;;;;;8.07;1.52;;;;;;;;;;5554394;25;20004;-57
2024/04/26 14:35:17;;;;;;;4.07;1.00;;;;;;;;;;5532833;25;19993;-56
2024/04/26 14:37:43;;;;;;;2.67;0.70;;;;;;;;;;5551808;25;20457;-57